sensor_id;sensor_type;location;lat;lon;timestamp;temperature;humidity
68648;SHT31;55632;51.962;16.116;2022-12-18T00:00:18;-4.13;88.80
68648;SHT31;55632;51.962;16.116;2022-12-18T00:05:19;-4.12;88.85
68648;SHT31;55632;51.962;16.116;2022-12-18T00:10:21;-4.10;88.68
68648;SHT31;55632;51.962;16.116;2022-12-18T00:15:22;-4.14;88.70
68648;SHT31;55632;51.962;16.116;2022-12-18T00:20:26;-4.12;88.92
68648;SHT31;55632;51.962;16.116;2022-12-18T00:25:33;-4.06;88.91
68648;SHT31;55632;51.962;16.116;2022-12-18T00:30:35;-4.09;88.84
68648;SHT31;55632;51.962;16.116;2022-12-18T00:35:36;-4.06;89.04
68648;SHT31;55632;51.962;16.116;2022-12-18T00:40:36;-4.01;89.16
68648;SHT31;55632;51.962;16.116;2022-12-18T00:45:37;-3.95;89.16
68648;SHT31;55632;51.962;16.116;2022-12-18T00:50:38;-3.89;89.15
68648;SHT31;55632;51.962;16.116;2022-12-18T00:55:40;-3.85;89.14
68648;SHT31;55632;51.962;16.116;2022-12-18T01:00:50;-3.81;89.10
68648;SHT31;55632;51.962;16.116;2022-12-18T01:05:50;-3.81;89.10
68648;SHT31;55632;51.962;16.116;2022-12-18T01:10:52;-3.81;89.13
68648;SHT31;55632;51.962;16.116;2022-12-18T01:15:53;-3.77;89.09
68648;SHT31;55632;51.962;16.116;2022-12-18T01:20:57;-3.75;89.07
68648;SHT31;55632;51.962;16.116;2022-12-18T01:25:57;-3.77;89.00
68648;SHT31;55632;51.962;16.116;2022-12-18T01:31:16;-3.78;88.91
68648;SHT31;55632;51.962;16.116;2022-12-18T01:36:20;-3.77;89.07
68648;SHT31;55632;51.962;16.116;2022-12-18T01:41:24;-3.71;89.16
68648;SHT31;55632;51.962;16.116;2022-12-18T01:46:27;-3.66;89.20
68648;SHT31;55632;51.962;16.116;2022-12-18T01:51:30;-3.61;89.18
68648;SHT31;55632;51.962;16.116;2022-12-18T01:56:31;-3.56;89.13
68648;SHT31;55632;51.962;16.116;2022-12-18T02:01:32;-3.53;89.06
68648;SHT31;55632;51.962;16.116;2022-12-18T02:06:40;-3.51;89.04
68648;SHT31;55632;51.962;16.116;2022-12-18T02:11:58;-3.49;89.07
68648;SHT31;55632;51.962;16.116;2022-12-18T02:22:29;-3.43;89.13
68648;SHT31;55632;51.962;16.116;2022-12-18T02:27:39;-3.42;88.93
68648;SHT31;55632;51.962;16.116;2022-12-18T02:32:46;-3.42;88.84
68648;SHT31;55632;51.962;16.116;2022-12-18T02:37:58;-3.44;88.90
68648;SHT31;55632;51.962;16.116;2022-12-18T02:43:12;-3.44;88.97
68648;SHT31;55632;51.962;16.116;2022-12-18T02:48:14;-3.39;88.95
68648;SHT31;55632;51.962;16.116;2022-12-18T02:59:23;-3.36;89.03
68648;SHT31;55632;51.962;16.116;2022-12-18T03:04:38;-3.29;89.02
68648;SHT31;55632;51.962;16.116;2022-12-18T03:09:44;-3.25;88.81
68648;SHT31;55632;51.962;16.116;2022-12-18T03:14:47;-3.25;88.81
68648;SHT31;55632;51.962;16.116;2022-12-18T03:19:52;-3.23;88.81
68648;SHT31;55632;51.962;16.116;2022-12-18T03:24:56;-3.23;88.66
68648;SHT31;55632;51.962;16.116;2022-12-18T03:30:07;-3.22;88.77
68648;SHT31;55632;51.962;16.116;2022-12-18T03:35:14;-3.23;88.81
68648;SHT31;55632;51.962;16.116;2022-12-18T03:40:20;-3.15;88.83
68648;SHT31;55632;51.962;16.116;2022-12-18T03:45:38;-3.11;88.83
68648;SHT31;55632;51.962;16.116;2022-12-18T03:51:24;-3.04;88.69
68648;SHT31;55632;51.962;16.116;2022-12-18T03:56:30;-2.99;88.70
68648;SHT31;55632;51.962;16.116;2022-12-18T04:02:06;-2.97;88.65
68648;SHT31;55632;51.962;16.116;2022-12-18T04:07:14;-2.95;88.58
68648;SHT31;55632;51.962;16.116;2022-12-18T04:12:42;-2.95;88.52
68648;SHT31;55632;51.962;16.116;2022-12-18T04:17:51;-2.97;88.41
68648;SHT31;55632;51.962;16.116;2022-12-18T04:23:11;-2.95;88.36
68648;SHT31;55632;51.962;16.116;2022-12-18T04:28:42;-2.97;88.40
68648;SHT31;55632;51.962;16.116;2022-12-18T04:34:31;-2.97;88.11
68648;SHT31;55632;51.962;16.116;2022-12-18T04:39:34;-3.01;88.23
68648;SHT31;55632;51.962;16.116;2022-12-18T04:44:41;-2.95;88.27
68648;SHT31;55632;51.962;16.116;2022-12-18T04:49:43;-2.95;88.25
68648;SHT31;55632;51.962;16.116;2022-12-18T04:54:44;-2.94;88.20
68648;SHT31;55632;51.962;16.116;2022-12-18T04:59:45;-2.95;88.22
68648;SHT31;55632;51.962;16.116;2022-12-18T05:04:45;-2.95;88.15
68648;SHT31;55632;51.962;16.116;2022-12-18T05:09:46;-2.92;88.09
68648;SHT31;55632;51.962;16.116;2022-12-18T05:14:50;-2.92;88.10
68648;SHT31;55632;51.962;16.116;2022-12-18T05:19:51;-2.91;88.13
68648;SHT31;55632;51.962;16.116;2022-12-18T05:24:52;-2.85;88.10
68648;SHT31;55632;51.962;16.116;2022-12-18T05:29:52;-2.85;88.05
68648;SHT31;55632;51.962;16.116;2022-12-18T05:35:09;-2.87;87.82
68648;SHT31;55632;51.962;16.116;2022-12-18T05:40:29;-2.91;87.76
68648;SHT31;55632;51.962;16.116;2022-12-18T05:45:38;-2.88;87.78
68648;SHT31;55632;51.962;16.116;2022-12-18T05:50:51;-2.87;87.78
68648;SHT31;55632;51.962;16.116;2022-12-18T05:56:06;-2.85;87.82
68648;SHT31;55632;51.962;16.116;2022-12-18T06:01:29;-2.83;87.73
68648;SHT31;55632;51.962;16.116;2022-12-18T06:06:48;-2.84;87.73
68648;SHT31;55632;51.962;16.116;2022-12-18T06:11:57;-2.83;87.67
68648;SHT31;55632;51.962;16.116;2022-12-18T06:17:30;-2.83;87.59
68648;SHT31;55632;51.962;16.116;2022-12-18T06:22:47;-2.84;87.43
68648;SHT31;55632;51.962;16.116;2022-12-18T06:28:14;-2.84;87.50
68648;SHT31;55632;51.962;16.116;2022-12-18T06:33:31;-2.79;87.46
68648;SHT31;55632;51.962;16.116;2022-12-18T06:38:48;-2.81;87.37
68648;SHT31;55632;51.962;16.116;2022-12-18T06:44:16;-2.79;87.38
68648;SHT31;55632;51.962;16.116;2022-12-18T06:49:25;-2.81;87.30
68648;SHT31;55632;51.962;16.116;2022-12-18T06:54:42;-2.80;87.34
68648;SHT31;55632;51.962;16.116;2022-12-18T07:05:55;-2.81;87.29
68648;SHT31;55632;51.962;16.116;2022-12-18T07:11:16;-2.79;87.24
68648;SHT31;55632;51.962;16.116;2022-12-18T07:17:03;-2.80;87.21
68648;SHT31;55632;51.962;16.116;2022-12-18T07:22:24;-2.79;87.11
68648;SHT31;55632;51.962;16.116;2022-12-18T07:27:41;-2.80;87.10
68648;SHT31;55632;51.962;16.116;2022-12-18T07:32:59;-2.79;87.16
68648;SHT31;55632;51.962;16.116;2022-12-18T07:38:24;-2.74;87.15
68648;SHT31;55632;51.962;16.116;2022-12-18T07:43:48;-2.73;86.92
68648;SHT31;55632;51.962;16.116;2022-12-18T07:49:16;-2.73;86.93
68648;SHT31;55632;51.962;16.116;2022-12-18T07:54:30;-2.50;88.16
68648;SHT31;55632;51.962;16.116;2022-12-18T07:59:49;-2.14;88.06
68648;SHT31;55632;51.962;16.116;2022-12-18T08:05:01;-1.97;87.83
68648;SHT31;55632;51.962;16.116;2022-12-18T08:10:14;-1.90;87.33
68648;SHT31;55632;51.962;16.116;2022-12-18T08:15:16;-1.91;86.79
68648;SHT31;55632;51.962;16.116;2022-12-18T08:20:33;-1.93;86.91
68648;SHT31;55632;51.962;16.116;2022-12-18T08:25:57;-1.72;86.90
68648;SHT31;55632;51.962;16.116;2022-12-18T08:31:19;-1.86;85.77
68648;SHT31;55632;51.962;16.116;2022-12-18T08:36:29;-2.02;85.69
68648;SHT31;55632;51.962;16.116;2022-12-18T08:41:31;-2.14;85.83
68648;SHT31;55632;51.962;16.116;2022-12-18T08:46:43;-2.22;85.94
68648;SHT31;55632;51.962;16.116;2022-12-18T08:52:23;-2.26;85.95
68648;SHT31;55632;51.962;16.116;2022-12-18T08:57:50;-2.31;85.63
68648;SHT31;55632;51.962;16.116;2022-12-18T09:08:58;-2.48;85.13
68648;SHT31;55632;51.962;16.116;2022-12-18T09:14:22;-2.63;85.06
68648;SHT31;55632;51.962;16.116;2022-12-18T09:19:57;-2.64;85.51
68648;SHT31;55632;51.962;16.116;2022-12-18T09:25:29;-2.59;85.61
68648;SHT31;55632;51.962;16.116;2022-12-18T09:30:50;-2.56;85.55
68648;SHT31;55632;51.962;16.116;2022-12-18T09:36:24;-2.50;85.53
68648;SHT31;55632;51.962;16.116;2022-12-18T09:41:53;-2.46;85.37
68648;SHT31;55632;51.962;16.116;2022-12-18T09:52:21;-2.43;85.26
68648;SHT31;55632;51.962;16.116;2022-12-18T09:57:24;-2.42;85.04
68648;SHT31;55632;51.962;16.116;2022-12-18T10:02:30;-2.42;84.95
68648;SHT31;55632;51.962;16.116;2022-12-18T10:07:42;-2.41;84.92
68648;SHT31;55632;51.962;16.116;2022-12-18T10:24:38;-2.39;84.71
68648;SHT31;55632;51.962;16.116;2022-12-18T10:29:50;-2.32;84.62
68648;SHT31;55632;51.962;16.116;2022-12-18T10:35:28;-2.31;84.50
68648;SHT31;55632;51.962;16.116;2022-12-18T10:46:21;-2.24;84.24
68648;SHT31;55632;51.962;16.116;2022-12-18T10:51:36;-2.19;84.33
68648;SHT31;55632;51.962;16.116;2022-12-18T10:56:53;-2.17;84.13
68648;SHT31;55632;51.962;16.116;2022-12-18T11:02:37;-2.17;83.67
68648;SHT31;55632;51.962;16.116;2022-12-18T11:07:50;-2.17;83.76
68648;SHT31;55632;51.962;16.116;2022-12-18T11:12:52;-2.19;83.00
68648;SHT31;55632;51.962;16.116;2022-12-18T11:17:53;-2.34;82.86
68648;SHT31;55632;51.962;16.116;2022-12-18T11:22:59;-2.43;83.13
68648;SHT31;55632;51.962;16.116;2022-12-18T11:28:26;-2.46;83.14
68648;SHT31;55632;51.962;16.116;2022-12-18T11:33:27;-2.46;83.18
68648;SHT31;55632;51.962;16.116;2022-12-18T11:38:39;-2.50;83.03
68648;SHT31;55632;51.962;16.116;2022-12-18T11:48:54;-2.50;83.29
68648;SHT31;55632;51.962;16.116;2022-12-18T11:54:01;-2.39;83.27
68648;SHT31;55632;51.962;16.116;2022-12-18T11:59:12;-2.28;83.41
68648;SHT31;55632;51.962;16.116;2022-12-18T12:15:55;-2.01;83.05
68648;SHT31;55632;51.962;16.116;2022-12-18T12:26:02;-2.08;81.43
68648;SHT31;55632;51.962;16.116;2022-12-18T12:31:14;-2.28;81.35
68648;SHT31;55632;51.962;16.116;2022-12-18T12:41:56;-2.54;82.01
68648;SHT31;55632;51.962;16.116;2022-12-18T12:47:26;-2.54;82.29
68648;SHT31;55632;51.962;16.116;2022-12-18T12:52:49;-2.54;81.98
68648;SHT31;55632;51.962;16.116;2022-12-18T12:58:07;-2.67;82.04
68648;SHT31;55632;51.962;16.116;2022-12-18T13:09:02;-2.77;82.41
68648;SHT31;55632;51.962;16.116;2022-12-18T13:14:39;-2.76;82.40
68648;SHT31;55632;51.962;16.116;2022-12-18T13:20:07;-2.74;82.46
68648;SHT31;55632;51.962;16.116;2022-12-18T13:40:59;-2.98;82.20
68648;SHT31;55632;51.962;16.116;2022-12-18T13:51:23;-3.12;82.54
68648;SHT31;55632;51.962;16.116;2022-12-18T13:56:27;-3.16;82.63
68648;SHT31;55632;51.962;16.116;2022-12-18T14:01:32;-3.16;82.72
68648;SHT31;55632;51.962;16.116;2022-12-18T14:06:34;-3.19;82.80
68648;SHT31;55632;51.962;16.116;2022-12-18T14:11:37;-3.23;82.82
68648;SHT31;55632;51.962;16.116;2022-12-18T14:16:47;-3.33;82.66
68648;SHT31;55632;51.962;16.116;2022-12-18T14:21:50;-3.47;82.65
68648;SHT31;55632;51.962;16.116;2022-12-18T14:26:51;-3.63;82.82
68648;SHT31;55632;51.962;16.116;2022-12-18T14:37:23;-3.95;82.92
68648;SHT31;55632;51.962;16.116;2022-12-18T14:42:26;-4.05;83.18
68648;SHT31;55632;51.962;16.116;2022-12-18T14:47:29;-4.16;83.43
68648;SHT31;55632;51.962;16.116;2022-12-18T14:52:32;-4.26;83.58
68648;SHT31;55632;51.962;16.116;2022-12-18T14:57:53;-4.34;83.77
68648;SHT31;55632;51.962;16.116;2022-12-18T15:03:18;-4.46;83.84
68648;SHT31;55632;51.962;16.116;2022-12-18T15:08:35;-4.55;83.87
68648;SHT31;55632;51.962;16.116;2022-12-18T15:13:37;-4.65;84.14
68648;SHT31;55632;51.962;16.116;2022-12-18T15:18:47;-4.74;84.51
68648;SHT31;55632;51.962;16.116;2022-12-18T15:23:51;-4.82;84.75
68648;SHT31;55632;51.962;16.116;2022-12-18T15:28:54;-4.91;85.05
68648;SHT31;55632;51.962;16.116;2022-12-18T15:39:00;-5.07;85.15
68648;SHT31;55632;51.962;16.116;2022-12-18T15:44:16;-5.16;85.36
68648;SHT31;55632;51.962;16.116;2022-12-18T15:49:22;-5.26;85.49
68648;SHT31;55632;51.962;16.116;2022-12-18T15:54:23;-5.35;85.84
68648;SHT31;55632;51.962;16.116;2022-12-18T15:59:53;-5.42;85.90
68648;SHT31;55632;51.962;16.116;2022-12-18T16:04:59;-5.47;86.00
68648;SHT31;55632;51.962;16.116;2022-12-18T16:15:35;-5.52;86.58
68648;SHT31;55632;51.962;16.116;2022-12-18T16:20:38;-5.54;86.64
68648;SHT31;55632;51.962;16.116;2022-12-18T16:25:45;-5.58;86.66
68648;SHT31;55632;51.962;16.116;2022-12-18T16:30:54;-5.59;86.52
68648;SHT31;55632;51.962;16.116;2022-12-18T16:36:16;-5.68;86.61
68648;SHT31;55632;51.962;16.116;2022-12-18T16:41:33;-5.72;86.60
68648;SHT31;55632;51.962;16.116;2022-12-18T16:46:46;-5.79;86.59
68648;SHT31;55632;51.962;16.116;2022-12-18T16:51:49;-5.87;86.75
68648;SHT31;55632;51.962;16.116;2022-12-18T16:56:51;-5.90;86.66
68648;SHT31;55632;51.962;16.116;2022-12-18T17:01:53;-5.98;86.65
68648;SHT31;55632;51.962;16.116;2022-12-18T17:06:57;-6.01;86.89
68648;SHT31;55632;51.962;16.116;2022-12-18T17:11:58;-6.04;87.18
68648;SHT31;55632;51.962;16.116;2022-12-18T17:17:00;-6.06;87.40
68648;SHT31;55632;51.962;16.116;2022-12-18T17:22:01;-6.06;87.53
68648;SHT31;55632;51.962;16.116;2022-12-18T17:27:03;-6.07;87.38
68648;SHT31;55632;51.962;16.116;2022-12-18T17:32:08;-6.13;87.17
68648;SHT31;55632;51.962;16.116;2022-12-18T17:37:10;-6.22;87.16
68648;SHT31;55632;51.962;16.116;2022-12-18T17:42:11;-6.24;87.53
68648;SHT31;55632;51.962;16.116;2022-12-18T17:47:13;-6.24;87.91
68648;SHT31;55632;51.962;16.116;2022-12-18T17:52:14;-6.22;88.47
68648;SHT31;55632;51.962;16.116;2022-12-18T17:57:15;-6.14;88.85
68648;SHT31;55632;51.962;16.116;2022-12-18T18:02:16;-6.07;89.30
68648;SHT31;55632;51.962;16.116;2022-12-18T18:12:38;-5.91;89.22
68648;SHT31;55632;51.962;16.116;2022-12-18T18:18:00;-5.85;89.39
68648;SHT31;55632;51.962;16.116;2022-12-18T18:23:02;-5.79;89.10
68648;SHT31;55632;51.962;16.116;2022-12-18T18:28:07;-5.76;89.42
68648;SHT31;55632;51.962;16.116;2022-12-18T18:33:12;-5.72;89.40
68648;SHT31;55632;51.962;16.116;2022-12-18T18:38:14;-5.71;89.26
68648;SHT31;55632;51.962;16.116;2022-12-18T18:43:15;-5.71;89.19
68648;SHT31;55632;51.962;16.116;2022-12-18T18:48:16;-5.66;89.41
68648;SHT31;55632;51.962;16.116;2022-12-18T18:53:18;-5.63;89.35
68648;SHT31;55632;51.962;16.116;2022-12-18T18:58:20;-5.62;89.12
68648;SHT31;55632;51.962;16.116;2022-12-18T19:03:27;-5.62;89.08
68648;SHT31;55632;51.962;16.116;2022-12-18T19:08:40;-5.62;89.06
68648;SHT31;55632;51.962;16.116;2022-12-18T19:13:44;-5.62;88.90
68648;SHT31;55632;51.962;16.116;2022-12-18T19:18:45;-5.63;88.74
68648;SHT31;55632;51.962;16.116;2022-12-18T19:23:47;-5.66;88.73
68648;SHT31;55632;51.962;16.116;2022-12-18T19:29:07;-5.69;88.56
68648;SHT31;55632;51.962;16.116;2022-12-18T19:34:10;-5.69;88.56
68648;SHT31;55632;51.962;16.116;2022-12-18T19:39:15;-5.72;88.53
68648;SHT31;55632;51.962;16.116;2022-12-18T19:44:20;-5.73;88.62
68648;SHT31;55632;51.962;16.116;2022-12-18T19:49:24;-5.72;88.58
68648;SHT31;55632;51.962;16.116;2022-12-18T19:54:25;-5.75;88.49
68648;SHT31;55632;51.962;16.116;2022-12-18T19:59:29;-5.80;88.47
68648;SHT31;55632;51.962;16.116;2022-12-18T20:04:30;-5.78;88.51
68648;SHT31;55632;51.962;16.116;2022-12-18T20:09:32;-5.78;88.59
68648;SHT31;55632;51.962;16.116;2022-12-18T20:14:39;-5.75;88.49
68648;SHT31;55632;51.962;16.116;2022-12-18T20:19:47;-5.76;88.42
68648;SHT31;55632;51.962;16.116;2022-12-18T20:24:52;-5.75;88.45
68648;SHT31;55632;51.962;16.116;2022-12-18T20:29:56;-5.78;88.40
68648;SHT31;55632;51.962;16.116;2022-12-18T20:35:02;-5.75;88.43
68648;SHT31;55632;51.962;16.116;2022-12-18T20:40:11;-5.72;88.44
68648;SHT31;55632;51.962;16.116;2022-12-18T20:45:16;-5.72;88.34
68648;SHT31;55632;51.962;16.116;2022-12-18T20:50:17;-5.71;88.34
68648;SHT31;55632;51.962;16.116;2022-12-18T20:55:19;-5.71;88.37
68648;SHT31;55632;51.962;16.116;2022-12-18T21:00:45;-5.71;88.35
68648;SHT31;55632;51.962;16.116;2022-12-18T21:05:50;-5.71;88.32
68648;SHT31;55632;51.962;16.116;2022-12-18T21:11:31;-5.68;88.35
68648;SHT31;55632;51.962;16.116;2022-12-18T21:16:55;-5.63;88.37
68648;SHT31;55632;51.962;16.116;2022-12-18T21:21:59;-5.61;88.32
68648;SHT31;55632;51.962;16.116;2022-12-18T21:27:00;-5.54;88.26
68648;SHT31;55632;51.962;16.116;2022-12-18T21:32:01;-5.50;88.10
68648;SHT31;55632;51.962;16.116;2022-12-18T21:37:03;-5.45;87.95
68648;SHT31;55632;51.962;16.116;2022-12-18T21:42:03;-5.44;87.84
68648;SHT31;55632;51.962;16.116;2022-12-18T21:47:23;-5.44;87.74
68648;SHT31;55632;51.962;16.116;2022-12-18T21:52:27;-5.42;87.58
68648;SHT31;55632;51.962;16.116;2022-12-18T21:57:28;-5.41;87.57
68648;SHT31;55632;51.962;16.116;2022-12-18T22:02:29;-5.38;87.53
68648;SHT31;55632;51.962;16.116;2022-12-18T22:07:31;-5.38;87.45
68648;SHT31;55632;51.962;16.116;2022-12-18T22:12:31;-5.38;87.28
68648;SHT31;55632;51.962;16.116;2022-12-18T22:17:35;-5.35;87.31
68648;SHT31;55632;51.962;16.116;2022-12-18T22:22:36;-5.32;87.27
68648;SHT31;55632;51.962;16.116;2022-12-18T22:27:37;-5.34;87.15
68648;SHT31;55632;51.962;16.116;2022-12-18T22:32:38;-5.31;87.13
68648;SHT31;55632;51.962;16.116;2022-12-18T22:37:42;-5.31;86.99
68648;SHT31;55632;51.962;16.116;2022-12-18T22:42:43;-5.24;86.99
68648;SHT31;55632;51.962;16.116;2022-12-18T22:47:46;-5.20;86.81
68648;SHT31;55632;51.962;16.116;2022-12-18T22:52:47;-5.21;86.73
68648;SHT31;55632;51.962;16.116;2022-12-18T22:57:54;-5.23;86.57
68648;SHT31;55632;51.962;16.116;2022-12-18T23:02:56;-5.14;86.76
68648;SHT31;55632;51.962;16.116;2022-12-18T23:07:57;-5.11;86.61
68648;SHT31;55632;51.962;16.116;2022-12-18T23:12:58;-5.10;86.52
68648;SHT31;55632;51.962;16.116;2022-12-18T23:17:59;-5.09;86.46
68648;SHT31;55632;51.962;16.116;2022-12-18T23:23:00;-5.06;86.38
68648;SHT31;55632;51.962;16.116;2022-12-18T23:28:01;-5.06;86.38
68648;SHT31;55632;51.962;16.116;2022-12-18T23:33:02;-5.02;86.26
68648;SHT31;55632;51.962;16.116;2022-12-18T23:38:03;-5.02;86.16
68648;SHT31;55632;51.962;16.116;2022-12-18T23:43:04;-4.99;86.22
68648;SHT31;55632;51.962;16.116;2022-12-18T23:48:05;-4.97;86.03
68648;SHT31;55632;51.962;16.116;2022-12-18T23:53:08;-4.96;85.99
68648;SHT31;55632;51.962;16.116;2022-12-18T23:58:18;-4.97;85.67
